T'ai-chung, Taiwan
Current Conditions -  °F | °C
As of 6:00 AM on Monday 26 Jan 2015 (Local Time) from RCMQ Reporting Station
Light Rain Light Rain  
Wind Chill: 59°   Ceiling: 2000
Heat Index: 59°   Visibility: 1.5mi
Dew Point: 55°   Wind: 9mph
Humidity: 88%   Direction: 310°NW
Pressure: 30.09"   Gusts: NA
Location:  24.15°N, 120.68°E
Report Text: RCMQ 252200Z 31008KT 2400 -RA BR SCT010 BKN020 BKN050 15/13 Q1019 NOSIG RMK A3010 RA AMT T
Loading
Personal Weather Stations






























Interactive Weather Map New forecast layout! Learn more

10-Day Weather Forecast

Advertisements
Track Severe Weather on mobile